CheckWX is a tool to help pilots better visualize weather data.  It is not intended as a substitute for an official pre-flight weather briefing.

18:18:48 UTC

KMAE METAR
Madera Municipal Airport
Madera, California, USA
Current

26 mins ago

KMAE 211753Z AUTO 30006KT 10SM CLR 29/11 A2990 RMK AO2 SLP123 T02890106 10289 20161 50002
Observed
Jul-21 @ 17:53 UTC
Wind
  • 300° at 6 KTS
Visibility
10 SM
Flight Rules
VFR
Cloud Levels
  • Clear skies
Temperature
29°C / 84°F
Dewpoint
11°C / 52°F
Humidity
33%
Altimeter
29.9" Hg
Pressure
1012.52 hPa
Previous

1 hour ago

KMAE 211653Z AUTO 29007KT 10SM CLR 27/11 A2990 RMK AO2 SLP123 T02670111
Observed
Jul-21 @ 16:53 UTC
Wind
  • 290° at 7 KTS
Visibility
10 SM
Flight Rules
VFR
Cloud Levels
  • Clear skies
Temperature
27°C / 81°F
Dewpoint
11°C / 52°F
Humidity
37%
Altimeter
29.9" Hg
Pressure
1012.52 hPa
Previous

2 hours ago

KMAE 211553Z AUTO 28004KT 10SM CLR 24/12 A2991 RMK AO2 SLP125 T02390122
Observed
Jul-21 @ 15:53 UTC
Wind
  • 280° at 4 KTS
Visibility
10 SM
Flight Rules
VFR
Cloud Levels
  • Clear skies
Temperature
24°C / 75°F
Dewpoint
12°C / 54°F
Humidity
47%
Altimeter
29.91" Hg
Pressure
1012.92 hPa